sensor_id;sensor_type;location;lat;lon;timestamp;P1;durP1;ratioP1;P2;durP2;ratioP2
12681;SDS011;6405;59.208;18.216;2022-11-12T00:00:49;7.00;;;1.63;;
12681;SDS011;6405;59.208;18.216;2022-11-12T00:03:15;7.13;;;2.10;;
12681;SDS011;6405;59.208;18.216;2022-11-12T00:05:42;7.17;;;1.97;;
12681;SDS011;6405;59.208;18.216;2022-11-12T00:08:10;8.37;;;2.00;;
12681;SDS011;6405;59.208;18.216;2022-11-12T00:10:37;4.60;;;1.33;;
12681;SDS011;6405;59.208;18.216;2022-11-12T00:13:04;8.63;;;2.10;;
12681;SDS011;6405;59.208;18.216;2022-11-12T00:15:32;7.07;;;1.90;;
12681;SDS011;6405;59.208;18.216;2022-11-12T00:17:59;10.83;;;2.17;;
12681;SDS011;6405;59.208;18.216;2022-11-12T00:20:25;7.43;;;1.37;;
12681;SDS011;6405;59.208;18.216;2022-11-12T00:22:53;8.33;;;1.77;;
12681;SDS011;6405;59.208;18.216;2022-11-12T00:25:21;4.53;;;1.70;;
12681;SDS011;6405;59.208;18.216;2022-11-12T00:27:48;4.57;;;1.47;;
12681;SDS011;6405;59.208;18.216;2022-11-12T00:30:15;8.63;;;1.70;;
12681;SDS011;6405;59.208;18.216;2022-11-12T00:32:44;7.17;;;1.60;;
12681;SDS011;6405;59.208;18.216;2022-11-12T00:35:11;7.37;;;1.60;;
12681;SDS011;6405;59.208;18.216;2022-11-12T00:37:36;8.20;;;1.87;;
12681;SDS011;6405;59.208;18.216;2022-11-12T00:40:04;6.43;;;1.97;;
12681;SDS011;6405;59.208;18.216;2022-11-12T00:42:31;6.17;;;1.83;;
12681;SDS011;6405;59.208;18.216;2022-11-12T00:44:57;6.73;;;1.53;;
12681;SDS011;6405;59.208;18.216;2022-11-12T00:47:25;2.80;;;1.40;;
12681;SDS011;6405;59.208;18.216;2022-11-12T00:49:52;5.53;;;1.70;;
12681;SDS011;6405;59.208;18.216;2022-11-12T00:52:20;5.83;;;1.80;;
12681;SDS011;6405;59.208;18.216;2022-11-12T00:54:46;2.43;;;0.90;;
12681;SDS011;6405;59.208;18.216;2022-11-12T00:57:14;7.63;;;1.50;;
12681;SDS011;6405;59.208;18.216;2022-11-12T00:59:42;4.43;;;1.73;;
12681;SDS011;6405;59.208;18.216;2022-11-12T01:02:09;4.27;;;1.37;;
12681;SDS011;6405;59.208;18.216;2022-11-12T01:04:35;6.67;;;1.50;;
12681;SDS011;6405;59.208;18.216;2022-11-12T01:07:02;9.33;;;1.53;;
12681;SDS011;6405;59.208;18.216;2022-11-12T01:09:29;7.60;;;1.87;;
12681;SDS011;6405;59.208;18.216;2022-11-12T01:11:55;4.73;;;1.60;;
12681;SDS011;6405;59.208;18.216;2022-11-12T01:14:22;4.37;;;1.43;;
12681;SDS011;6405;59.208;18.216;2022-11-12T01:16:49;6.17;;;1.60;;
12681;SDS011;6405;59.208;18.216;2022-11-12T01:19:17;5.93;;;1.60;;
12681;SDS011;6405;59.208;18.216;2022-11-12T01:21:43;8.63;;;2.10;;
12681;SDS011;6405;59.208;18.216;2022-11-12T01:24:10;5.97;;;1.87;;
12681;SDS011;6405;59.208;18.216;2022-11-12T01:26:37;6.37;;;1.50;;
12681;SDS011;6405;59.208;18.216;2022-11-12T01:29:03;7.80;;;1.90;;
12681;SDS011;6405;59.208;18.216;2022-11-12T01:31:31;6.63;;;2.10;;
12681;SDS011;6405;59.208;18.216;2022-11-12T01:34:01;8.57;;;2.17;;
12681;SDS011;6405;59.208;18.216;2022-11-12T01:36:31;5.70;;;1.80;;
12681;SDS011;6405;59.208;18.216;2022-11-12T01:39:00;13.57;;;2.10;;
12681;SDS011;6405;59.208;18.216;2022-11-12T01:41:28;7.67;;;1.90;;
12681;SDS011;6405;59.208;18.216;2022-11-12T01:52:47;4.10;;;1.67;;
12681;SDS011;6405;59.208;18.216;2022-11-12T01:55:15;5.03;;;1.50;;
12681;SDS011;6405;59.208;18.216;2022-11-12T01:57:49;4.17;;;1.30;;
12681;SDS011;6405;59.208;18.216;2022-11-12T02:00:21;4.50;;;1.70;;
12681;SDS011;6405;59.208;18.216;2022-11-12T02:02:52;4.70;;;1.40;;
12681;SDS011;6405;59.208;18.216;2022-11-12T02:05:23;5.03;;;1.80;;
12681;SDS011;6405;59.208;18.216;2022-11-12T02:07:52;6.57;;;1.63;;
12681;SDS011;6405;59.208;18.216;2022-11-12T02:10:20;7.20;;;1.93;;
12681;SDS011;6405;59.208;18.216;2022-11-12T02:12:47;8.00;;;1.70;;
12681;SDS011;6405;59.208;18.216;2022-11-12T02:15:35;4.43;;;2.00;;
12681;SDS011;6405;59.208;18.216;2022-11-12T02:18:03;6.33;;;2.10;;
12681;SDS011;6405;59.208;18.216;2022-11-12T02:20:34;7.37;;;1.70;;
12681;SDS011;6405;59.208;18.216;2022-11-12T02:23:01;7.83;;;2.00;;
12681;SDS011;6405;59.208;18.216;2022-11-12T02:25:30;11.77;;;2.70;;
12681;SDS011;6405;59.208;18.216;2022-11-12T02:27:57;7.57;;;2.07;;
12681;SDS011;6405;59.208;18.216;2022-11-12T02:30:31;7.47;;;2.33;;
12681;SDS011;6405;59.208;18.216;2022-11-12T02:33:01;5.63;;;1.70;;
12681;SDS011;6405;59.208;18.216;2022-11-12T02:35:29;8.17;;;2.37;;
12681;SDS011;6405;59.208;18.216;2022-11-12T02:37:56;6.10;;;1.63;;
12681;SDS011;6405;59.208;18.216;2022-11-12T02:40:23;6.13;;;2.23;;
12681;SDS011;6405;59.208;18.216;2022-11-12T02:42:48;9.20;;;1.97;;
12681;SDS011;6405;59.208;18.216;2022-11-12T02:45:15;8.90;;;2.40;;
12681;SDS011;6405;59.208;18.216;2022-11-12T02:47:41;8.67;;;2.00;;
12681;SDS011;6405;59.208;18.216;2022-11-12T02:50:07;6.27;;;1.90;;
12681;SDS011;6405;59.208;18.216;2022-11-12T02:52:34;9.63;;;2.03;;
12681;SDS011;6405;59.208;18.216;2022-11-12T02:55:00;5.53;;;2.27;;
12681;SDS011;6405;59.208;18.216;2022-11-12T02:57:27;11.13;;;1.73;;
12681;SDS011;6405;59.208;18.216;2022-11-12T02:59:55;5.63;;;1.73;;
12681;SDS011;6405;59.208;18.216;2022-11-12T03:02:22;10.10;;;2.10;;
12681;SDS011;6405;59.208;18.216;2022-11-12T03:04:48;6.07;;;1.80;;
12681;SDS011;6405;59.208;18.216;2022-11-12T03:07:16;8.33;;;1.90;;
12681;SDS011;6405;59.208;18.216;2022-11-12T03:09:42;7.07;;;1.87;;
12681;SDS011;6405;59.208;18.216;2022-11-12T03:12:10;8.17;;;1.57;;
12681;SDS011;6405;59.208;18.216;2022-11-12T03:14:36;8.33;;;2.20;;
12681;SDS011;6405;59.208;18.216;2022-11-12T03:17:02;9.90;;;2.50;;
12681;SDS011;6405;59.208;18.216;2022-11-12T03:19:29;8.33;;;1.90;;
12681;SDS011;6405;59.208;18.216;2022-11-12T03:21:55;7.57;;;2.00;;
12681;SDS011;6405;59.208;18.216;2022-11-12T03:24:21;5.83;;;1.80;;
12681;SDS011;6405;59.208;18.216;2022-11-12T03:26:48;7.70;;;2.00;;
12681;SDS011;6405;59.208;18.216;2022-11-12T03:29:14;7.03;;;2.53;;
12681;SDS011;6405;59.208;18.216;2022-11-12T03:31:41;5.73;;;2.03;;
12681;SDS011;6405;59.208;18.216;2022-11-12T03:34:09;10.60;;;2.50;;
12681;SDS011;6405;59.208;18.216;2022-11-12T03:36:36;11.60;;;2.57;;
12681;SDS011;6405;59.208;18.216;2022-11-12T03:39:04;7.53;;;1.80;;
12681;SDS011;6405;59.208;18.216;2022-11-12T03:41:31;5.73;;;2.30;;
12681;SDS011;6405;59.208;18.216;2022-11-12T03:43:58;9.50;;;2.17;;
12681;SDS011;6405;59.208;18.216;2022-11-12T03:46:25;7.27;;;2.17;;
12681;SDS011;6405;59.208;18.216;2022-11-12T03:48:51;7.13;;;1.90;;
12681;SDS011;6405;59.208;18.216;2022-11-12T03:51:17;6.70;;;1.47;;
12681;SDS011;6405;59.208;18.216;2022-11-12T03:53:46;10.33;;;2.93;;
12681;SDS011;6405;59.208;18.216;2022-11-12T03:56:13;6.60;;;1.93;;
12681;SDS011;6405;59.208;18.216;2022-11-12T03:58:40;7.57;;;2.33;;
12681;SDS011;6405;59.208;18.216;2022-11-12T04:01:07;10.33;;;2.77;;
12681;SDS011;6405;59.208;18.216;2022-11-12T04:03:36;5.47;;;1.70;;
12681;SDS011;6405;59.208;18.216;2022-11-12T04:06:03;8.33;;;2.20;;
12681;SDS011;6405;59.208;18.216;2022-11-12T04:08:49;8.60;;;2.10;;
12681;SDS011;6405;59.208;18.216;2022-11-12T04:11:15;9.27;;;2.30;;
12681;SDS011;6405;59.208;18.216;2022-11-12T04:13:43;7.63;;;2.00;;
12681;SDS011;6405;59.208;18.216;2022-11-12T04:16:13;8.93;;;2.27;;
12681;SDS011;6405;59.208;18.216;2022-11-12T04:19:03;7.30;;;2.33;;
12681;SDS011;6405;59.208;18.216;2022-11-12T04:21:50;7.10;;;2.13;;
12681;SDS011;6405;59.208;18.216;2022-11-12T04:27:18;6.07;;;1.87;;
12681;SDS011;6405;59.208;18.216;2022-11-12T04:29:50;11.07;;;2.70;;
12681;SDS011;6405;59.208;18.216;2022-11-12T04:32:37;6.73;;;2.27;;
12681;SDS011;6405;59.208;18.216;2022-11-12T04:35:07;6.77;;;2.00;;
12681;SDS011;6405;59.208;18.216;2022-11-12T04:37:33;6.30;;;1.93;;
12681;SDS011;6405;59.208;18.216;2022-11-12T04:40:14;11.23;;;2.60;;
12681;SDS011;6405;59.208;18.216;2022-11-12T04:43:05;8.83;;;2.00;;
12681;SDS011;6405;59.208;18.216;2022-11-12T04:45:54;4.63;;;1.50;;
12681;SDS011;6405;59.208;18.216;2022-11-12T04:48:22;10.80;;;2.63;;
12681;SDS011;6405;59.208;18.216;2022-11-12T04:50:54;11.67;;;2.60;;
12681;SDS011;6405;59.208;18.216;2022-11-12T04:53:23;10.53;;;2.43;;
12681;SDS011;6405;59.208;18.216;2022-11-12T04:55:51;6.33;;;1.83;;
12681;SDS011;6405;59.208;18.216;2022-11-12T04:58:20;8.70;;;3.03;;
12681;SDS011;6405;59.208;18.216;2022-11-12T05:00:49;7.43;;;2.23;;
12681;SDS011;6405;59.208;18.216;2022-11-12T05:03:17;6.93;;;2.13;;
12681;SDS011;6405;59.208;18.216;2022-11-12T05:05:43;8.23;;;2.60;;
12681;SDS011;6405;59.208;18.216;2022-11-12T05:08:10;7.77;;;2.40;;
12681;SDS011;6405;59.208;18.216;2022-11-12T05:10:37;8.37;;;2.13;;
12681;SDS011;6405;59.208;18.216;2022-11-12T05:13:04;7.10;;;2.30;;
12681;SDS011;6405;59.208;18.216;2022-11-12T05:15:30;8.67;;;2.07;;
12681;SDS011;6405;59.208;18.216;2022-11-12T05:17:56;10.77;;;2.23;;
12681;SDS011;6405;59.208;18.216;2022-11-12T05:20:23;8.27;;;2.10;;
12681;SDS011;6405;59.208;18.216;2022-11-12T05:22:50;13.90;;;3.00;;
12681;SDS011;6405;59.208;18.216;2022-11-12T05:25:18;9.40;;;2.27;;
12681;SDS011;6405;59.208;18.216;2022-11-12T05:27:45;8.20;;;2.30;;
12681;SDS011;6405;59.208;18.216;2022-11-12T05:30:12;13.03;;;2.10;;
12681;SDS011;6405;59.208;18.216;2022-11-12T05:32:40;8.83;;;2.60;;
12681;SDS011;6405;59.208;18.216;2022-11-12T05:35:07;7.40;;;2.00;;
12681;SDS011;6405;59.208;18.216;2022-11-12T05:37:35;9.60;;;2.57;;
12681;SDS011;6405;59.208;18.216;2022-11-12T05:40:03;6.37;;;1.80;;
12681;SDS011;6405;59.208;18.216;2022-11-12T05:42:31;9.30;;;2.33;;
12681;SDS011;6405;59.208;18.216;2022-11-12T05:44:57;9.23;;;2.53;;
12681;SDS011;6405;59.208;18.216;2022-11-12T05:47:24;7.17;;;1.67;;
12681;SDS011;6405;59.208;18.216;2022-11-12T05:50:08;8.60;;;2.33;;
12681;SDS011;6405;59.208;18.216;2022-11-12T05:52:52;15.53;;;2.40;;
12681;SDS011;6405;59.208;18.216;2022-11-12T05:55:26;10.37;;;2.40;;
12681;SDS011;6405;59.208;18.216;2022-11-12T05:57:54;11.23;;;2.10;;
12681;SDS011;6405;59.208;18.216;2022-11-12T06:00:20;7.50;;;2.30;;
12681;SDS011;6405;59.208;18.216;2022-11-12T06:02:47;8.47;;;2.20;;
12681;SDS011;6405;59.208;18.216;2022-11-12T06:05:13;12.50;;;3.10;;
12681;SDS011;6405;59.208;18.216;2022-11-12T06:07:40;12.67;;;2.33;;
12681;SDS011;6405;59.208;18.216;2022-11-12T06:10:07;8.53;;;2.33;;
12681;SDS011;6405;59.208;18.216;2022-11-12T06:12:34;13.90;;;2.80;;
12681;SDS011;6405;59.208;18.216;2022-11-12T06:15:01;13.80;;;2.50;;
12681;SDS011;6405;59.208;18.216;2022-11-12T06:17:28;8.13;;;1.77;;
12681;SDS011;6405;59.208;18.216;2022-11-12T06:19:55;8.80;;;2.27;;
12681;SDS011;6405;59.208;18.216;2022-11-12T06:22:22;8.00;;;2.20;;
12681;SDS011;6405;59.208;18.216;2022-11-12T06:24:48;9.77;;;2.33;;
12681;SDS011;6405;59.208;18.216;2022-11-12T06:27:15;13.30;;;3.13;;
12681;SDS011;6405;59.208;18.216;2022-11-12T06:29:43;13.20;;;2.80;;
12681;SDS011;6405;59.208;18.216;2022-11-12T06:32:09;11.57;;;2.60;;
12681;SDS011;6405;59.208;18.216;2022-11-12T06:34:36;8.87;;;3.00;;
12681;SDS011;6405;59.208;18.216;2022-11-12T06:37:03;10.23;;;2.37;;
12681;SDS011;6405;59.208;18.216;2022-11-12T06:39:30;11.00;;;2.97;;
12681;SDS011;6405;59.208;18.216;2022-11-12T06:41:57;12.47;;;3.47;;
12681;SDS011;6405;59.208;18.216;2022-11-12T06:44:23;12.13;;;2.70;;
12681;SDS011;6405;59.208;18.216;2022-11-12T06:46:51;15.13;;;2.97;;
12681;SDS011;6405;59.208;18.216;2022-11-12T06:49:18;9.73;;;2.30;;
12681;SDS011;6405;59.208;18.216;2022-11-12T06:51:48;10.13;;;2.10;;
12681;SDS011;6405;59.208;18.216;2022-11-12T06:54:15;10.87;;;3.00;;
12681;SDS011;6405;59.208;18.216;2022-11-12T06:56:42;11.80;;;2.77;;
12681;SDS011;6405;59.208;18.216;2022-11-12T06:59:09;13.83;;;2.60;;
12681;SDS011;6405;59.208;18.216;2022-11-12T07:01:36;10.93;;;2.93;;
12681;SDS011;6405;59.208;18.216;2022-11-12T07:04:02;10.43;;;2.67;;
12681;SDS011;6405;59.208;18.216;2022-11-12T07:06:29;10.53;;;2.27;;
12681;SDS011;6405;59.208;18.216;2022-11-12T07:08:56;10.73;;;2.93;;
12681;SDS011;6405;59.208;18.216;2022-11-12T07:11:22;12.67;;;3.13;;
12681;SDS011;6405;59.208;18.216;2022-11-12T07:13:49;10.77;;;2.47;;
12681;SDS011;6405;59.208;18.216;2022-11-12T07:16:17;14.83;;;3.30;;
12681;SDS011;6405;59.208;18.216;2022-11-12T07:18:44;11.63;;;2.73;;
12681;SDS011;6405;59.208;18.216;2022-11-12T07:21:12;13.20;;;2.60;;
12681;SDS011;6405;59.208;18.216;2022-11-12T07:23:43;12.83;;;2.47;;
12681;SDS011;6405;59.208;18.216;2022-11-12T07:28:40;10.43;;;2.77;;
12681;SDS011;6405;59.208;18.216;2022-11-12T07:31:09;12.90;;;3.10;;
12681;SDS011;6405;59.208;18.216;2022-11-12T07:33:37;14.80;;;3.93;;
12681;SDS011;6405;59.208;18.216;2022-11-12T07:38:36;14.63;;;3.90;;
12681;SDS011;6405;59.208;18.216;2022-11-12T07:41:05;10.47;;;2.70;;
12681;SDS011;6405;59.208;18.216;2022-11-12T07:43:34;14.23;;;3.80;;
12681;SDS011;6405;59.208;18.216;2022-11-12T07:46:06;9.10;;;3.00;;
12681;SDS011;6405;59.208;18.216;2022-11-12T07:48:36;14.27;;;2.60;;
12681;SDS011;6405;59.208;18.216;2022-11-12T07:51:05;13.57;;;2.97;;
12681;SDS011;6405;59.208;18.216;2022-11-12T07:53:43;9.33;;;1.80;;
12681;SDS011;6405;59.208;18.216;2022-11-12T07:56:12;10.37;;;2.70;;
12681;SDS011;6405;59.208;18.216;2022-11-12T07:58:43;13.93;;;3.20;;
12681;SDS011;6405;59.208;18.216;2022-11-12T08:03:55;17.57;;;3.40;;
12681;SDS011;6405;59.208;18.216;2022-11-12T08:06:27;11.17;;;2.73;;
12681;SDS011;6405;59.208;18.216;2022-11-12T08:08:55;10.67;;;2.80;;
12681;SDS011;6405;59.208;18.216;2022-11-12T08:11:23;11.97;;;2.43;;
12681;SDS011;6405;59.208;18.216;2022-11-12T08:13:50;15.40;;;3.23;;
12681;SDS011;6405;59.208;18.216;2022-11-12T08:16:18;9.53;;;3.00;;
12681;SDS011;6405;59.208;18.216;2022-11-12T08:18:45;11.47;;;2.30;;
12681;SDS011;6405;59.208;18.216;2022-11-12T08:21:14;8.97;;;2.20;;
12681;SDS011;6405;59.208;18.216;2022-11-12T08:23:44;12.20;;;2.93;;
12681;SDS011;6405;59.208;18.216;2022-11-12T08:26:13;12.17;;;3.03;;
12681;SDS011;6405;59.208;18.216;2022-11-12T08:28:40;11.20;;;2.70;;
12681;SDS011;6405;59.208;18.216;2022-11-12T08:31:08;14.63;;;3.40;;
12681;SDS011;6405;59.208;18.216;2022-11-12T08:33:39;10.57;;;2.63;;
12681;SDS011;6405;59.208;18.216;2022-11-12T08:36:08;15.60;;;3.13;;
12681;SDS011;6405;59.208;18.216;2022-11-12T08:38:36;11.93;;;3.40;;
12681;SDS011;6405;59.208;18.216;2022-11-12T08:41:03;15.60;;;3.03;;
12681;SDS011;6405;59.208;18.216;2022-11-12T08:43:31;14.63;;;3.37;;
12681;SDS011;6405;59.208;18.216;2022-11-12T08:45:58;10.33;;;3.07;;
12681;SDS011;6405;59.208;18.216;2022-11-12T08:48:26;11.30;;;3.53;;
12681;SDS011;6405;59.208;18.216;2022-11-12T08:50:55;15.07;;;2.77;;
12681;SDS011;6405;59.208;18.216;2022-11-12T08:53:24;11.50;;;2.80;;
12681;SDS011;6405;59.208;18.216;2022-11-12T08:55:51;13.33;;;3.07;;
12681;SDS011;6405;59.208;18.216;2022-11-12T08:58:19;10.00;;;2.57;;
12681;SDS011;6405;59.208;18.216;2022-11-12T09:00:46;13.53;;;2.73;;
12681;SDS011;6405;59.208;18.216;2022-11-12T09:03:16;10.20;;;3.30;;
12681;SDS011;6405;59.208;18.216;2022-11-12T09:05:46;13.80;;;3.10;;
12681;SDS011;6405;59.208;18.216;2022-11-12T09:08:14;13.73;;;2.53;;
12681;SDS011;6405;59.208;18.216;2022-11-12T09:10:42;11.30;;;3.00;;
12681;SDS011;6405;59.208;18.216;2022-11-12T09:13:09;12.40;;;3.07;;
12681;SDS011;6405;59.208;18.216;2022-11-12T09:15:36;11.40;;;2.80;;
12681;SDS011;6405;59.208;18.216;2022-11-12T09:18:04;12.03;;;2.93;;
12681;SDS011;6405;59.208;18.216;2022-11-12T09:20:32;12.43;;;3.37;;
12681;SDS011;6405;59.208;18.216;2022-11-12T09:22:59;7.83;;;2.50;;
12681;SDS011;6405;59.208;18.216;2022-11-12T09:25:28;9.03;;;2.60;;
12681;SDS011;6405;59.208;18.216;2022-11-12T09:27:57;18.67;;;3.10;;
12681;SDS011;6405;59.208;18.216;2022-11-12T09:30:24;8.23;;;2.07;;
12681;SDS011;6405;59.208;18.216;2022-11-12T09:32:56;13.10;;;3.00;;
12681;SDS011;6405;59.208;18.216;2022-11-12T09:35:25;8.93;;;2.83;;
12681;SDS011;6405;59.208;18.216;2022-11-12T09:37:51;10.57;;;2.77;;
12681;SDS011;6405;59.208;18.216;2022-11-12T09:40:18;11.40;;;2.57;;
12681;SDS011;6405;59.208;18.216;2022-11-12T09:42:45;11.67;;;2.50;;
12681;SDS011;6405;59.208;18.216;2022-11-12T09:45:26;16.27;;;3.10;;
12681;SDS011;6405;59.208;18.216;2022-11-12T09:47:59;7.60;;;2.07;;
12681;SDS011;6405;59.208;18.216;2022-11-12T09:51:05;8.27;;;2.67;;
12681;SDS011;6405;59.208;18.216;2022-11-12T09:53:56;13.90;;;3.00;;
12681;SDS011;6405;59.208;18.216;2022-11-12T09:56:24;14.50;;;2.67;;
12681;SDS011;6405;59.208;18.216;2022-11-12T09:58:53;10.53;;;3.27;;
12681;SDS011;6405;59.208;18.216;2022-11-12T10:01:41;13.57;;;3.20;;
12681;SDS011;6405;59.208;18.216;2022-11-12T10:10:05;9.07;;;2.50;;
12681;SDS011;6405;59.208;18.216;2022-11-12T10:12:59;12.27;;;2.30;;
12681;SDS011;6405;59.208;18.216;2022-11-12T10:15:38;11.90;;;2.67;;
12681;SDS011;6405;59.208;18.216;2022-11-12T10:18:53;9.80;;;2.80;;
12681;SDS011;6405;59.208;18.216;2022-11-12T10:21:35;13.47;;;3.03;;
12681;SDS011;6405;59.208;18.216;2022-11-12T10:24:20;9.23;;;3.17;;
12681;SDS011;6405;59.208;18.216;2022-11-12T10:26:48;14.83;;;2.83;;
12681;SDS011;6405;59.208;18.216;2022-11-12T10:29:21;9.00;;;2.70;;
12681;SDS011;6405;59.208;18.216;2022-11-12T10:32:12;9.77;;;2.47;;
12681;SDS011;6405;59.208;18.216;2022-11-12T10:34:41;7.73;;;2.63;;
12681;SDS011;6405;59.208;18.216;2022-11-12T10:37:24;9.67;;;2.30;;
12681;SDS011;6405;59.208;18.216;2022-11-12T10:45:53;7.27;;;2.03;;
12681;SDS011;6405;59.208;18.216;2022-11-12T10:48:52;11.10;;;2.70;;
12681;SDS011;6405;59.208;18.216;2022-11-12T10:51:26;10.47;;;2.37;;
12681;SDS011;6405;59.208;18.216;2022-11-12T10:53:55;10.10;;;2.30;;
12681;SDS011;6405;59.208;18.216;2022-11-12T10:56:24;9.60;;;2.57;;
12681;SDS011;6405;59.208;18.216;2022-11-12T10:59:07;8.23;;;2.20;;
12681;SDS011;6405;59.208;18.216;2022-11-12T11:01:44;7.40;;;2.17;;
12681;SDS011;6405;59.208;18.216;2022-11-12T11:04:22;9.40;;;2.63;;
12681;SDS011;6405;59.208;18.216;2022-11-12T11:07:23;10.57;;;2.20;;
12681;SDS011;6405;59.208;18.216;2022-11-12T11:09:52;8.03;;;2.03;;
12681;SDS011;6405;59.208;18.216;2022-11-12T11:12:22;12.50;;;2.40;;
12681;SDS011;6405;59.208;18.216;2022-11-12T11:15:08;8.47;;;2.50;;
12681;SDS011;6405;59.208;18.216;2022-11-12T11:17:44;7.43;;;2.53;;
12681;SDS011;6405;59.208;18.216;2022-11-12T11:20:22;6.97;;;2.07;;
12681;SDS011;6405;59.208;18.216;2022-11-12T11:22:54;10.53;;;2.57;;
12681;SDS011;6405;59.208;18.216;2022-11-12T11:25:26;12.20;;;2.57;;
12681;SDS011;6405;59.208;18.216;2022-11-12T11:28:15;9.07;;;2.27;;
12681;SDS011;6405;59.208;18.216;2022-11-12T11:30:58;7.90;;;2.57;;
12681;SDS011;6405;59.208;18.216;2022-11-12T11:33:46;10.03;;;2.30;;
12681;SDS011;6405;59.208;18.216;2022-11-12T11:36:55;8.53;;;2.37;;
12681;SDS011;6405;59.208;18.216;2022-11-12T11:48:01;8.50;;;2.10;;
12681;SDS011;6405;59.208;18.216;2022-11-12T11:50:45;9.43;;;2.50;;
12681;SDS011;6405;59.208;18.216;2022-11-12T11:56:18;7.63;;;1.93;;
12681;SDS011;6405;59.208;18.216;2022-11-12T12:04:35;6.30;;;1.57;;
12681;SDS011;6405;59.208;18.216;2022-11-12T12:09:57;7.93;;;2.67;;
12681;SDS011;6405;59.208;18.216;2022-11-12T12:12:41;5.83;;;2.63;;
12681;SDS011;6405;59.208;18.216;2022-11-12T12:21:08;8.60;;;2.10;;
12681;SDS011;6405;59.208;18.216;2022-11-12T12:23:41;6.50;;;2.63;;
12681;SDS011;6405;59.208;18.216;2022-11-12T12:26:20;9.00;;;2.13;;
12681;SDS011;6405;59.208;18.216;2022-11-12T12:31:21;8.10;;;2.30;;
12681;SDS011;6405;59.208;18.216;2022-11-12T12:33:52;6.87;;;1.80;;
12681;SDS011;6405;59.208;18.216;2022-11-12T12:36:35;9.40;;;1.87;;
12681;SDS011;6405;59.208;18.216;2022-11-12T12:39:14;9.73;;;2.10;;
12681;SDS011;6405;59.208;18.216;2022-11-12T12:44:25;10.40;;;2.37;;
12681;SDS011;6405;59.208;18.216;2022-11-12T12:47:15;5.57;;;1.63;;
12681;SDS011;6405;59.208;18.216;2022-11-12T12:49:45;5.70;;;1.83;;
12681;SDS011;6405;59.208;18.216;2022-11-12T12:52:13;5.67;;;2.27;;
12681;SDS011;6405;59.208;18.216;2022-11-12T13:00:49;5.87;;;2.00;;
12681;SDS011;6405;59.208;18.216;2022-11-12T13:02:55;7.67;;;1.97;;
12681;SDS011;6405;59.208;18.216;2022-11-12T13:05:22;5.77;;;1.87;;
12681;SDS011;6405;59.208;18.216;2022-11-12T13:07:52;5.77;;;1.80;;
12681;SDS011;6405;59.208;18.216;2022-11-12T13:21:13;5.00;;;1.40;;
12681;SDS011;6405;59.208;18.216;2022-11-12T13:31:44;10.17;;;2.10;;
12681;SDS011;6405;59.208;18.216;2022-11-12T13:34:21;10.17;;;1.77;;
12681;SDS011;6405;59.208;18.216;2022-11-12T13:36:57;9.90;;;2.00;;
12681;SDS011;6405;59.208;18.216;2022-11-12T13:39:28;5.30;;;1.80;;
12681;SDS011;6405;59.208;18.216;2022-11-12T13:42:02;6.63;;;1.73;;
12681;SDS011;6405;59.208;18.216;2022-11-12T13:45:00;7.13;;;1.83;;
12681;SDS011;6405;59.208;18.216;2022-11-12T13:47:27;6.10;;;1.80;;
12681;SDS011;6405;59.208;18.216;2022-11-12T13:49:54;7.20;;;1.73;;
12681;SDS011;6405;59.208;18.216;2022-11-12T13:52:25;7.50;;;2.00;;
12681;SDS011;6405;59.208;18.216;2022-11-12T13:55:01;6.43;;;1.50;;
12681;SDS011;6405;59.208;18.216;2022-11-12T13:57:38;7.53;;;2.00;;
12681;SDS011;6405;59.208;18.216;2022-11-12T14:00:08;7.53;;;2.03;;
12681;SDS011;6405;59.208;18.216;2022-11-12T14:02:41;7.70;;;2.07;;
12681;SDS011;6405;59.208;18.216;2022-11-12T14:05:14;7.43;;;2.40;;
12681;SDS011;6405;59.208;18.216;2022-11-12T14:21:56;5.53;;;1.67;;
12681;SDS011;6405;59.208;18.216;2022-11-12T14:24:26;8.23;;;1.80;;
12681;SDS011;6405;59.208;18.216;2022-11-12T14:26:54;6.93;;;1.83;;
12681;SDS011;6405;59.208;18.216;2022-11-12T14:29:21;6.67;;;1.67;;
12681;SDS011;6405;59.208;18.216;2022-11-12T14:31:47;7.00;;;2.07;;
12681;SDS011;6405;59.208;18.216;2022-11-12T14:36:54;3.77;;;1.53;;
12681;SDS011;6405;59.208;18.216;2022-11-12T14:39:23;4.87;;;2.07;;
12681;SDS011;6405;59.208;18.216;2022-11-12T14:41:52;8.17;;;2.20;;
12681;SDS011;6405;59.208;18.216;2022-11-12T14:44:27;8.33;;;1.73;;
12681;SDS011;6405;59.208;18.216;2022-11-12T14:47:01;8.10;;;1.70;;
12681;SDS011;6405;59.208;18.216;2022-11-12T14:49:38;6.50;;;1.60;;
12681;SDS011;6405;59.208;18.216;2022-11-12T14:54:40;5.93;;;1.77;;
12681;SDS011;6405;59.208;18.216;2022-11-12T14:57:19;5.23;;;1.90;;
12681;SDS011;6405;59.208;18.216;2022-11-12T14:59:50;4.43;;;1.80;;
12681;SDS011;6405;59.208;18.216;2022-11-12T15:02:24;5.47;;;1.60;;
12681;SDS011;6405;59.208;18.216;2022-11-12T15:04:58;7.23;;;2.03;;
12681;SDS011;6405;59.208;18.216;2022-11-12T15:10:41;7.07;;;1.80;;
12681;SDS011;6405;59.208;18.216;2022-11-12T15:13:10;4.40;;;1.40;;
12681;SDS011;6405;59.208;18.216;2022-11-12T15:18:33;5.67;;;1.53;;
12681;SDS011;6405;59.208;18.216;2022-11-12T15:24:02;7.30;;;1.97;;
12681;SDS011;6405;59.208;18.216;2022-11-12T15:26:38;8.23;;;2.10;;
12681;SDS011;6405;59.208;18.216;2022-11-12T15:34:24;5.77;;;2.00;;
12681;SDS011;6405;59.208;18.216;2022-11-12T15:36:54;6.33;;;2.03;;
12681;SDS011;6405;59.208;18.216;2022-11-12T15:39:21;6.63;;;1.93;;
12681;SDS011;6405;59.208;18.216;2022-11-12T15:42:24;3.43;;;1.60;;
12681;SDS011;6405;59.208;18.216;2022-11-12T15:44:48;7.20;;;2.00;;
12681;SDS011;6405;59.208;18.216;2022-11-12T15:47:18;7.83;;;2.10;;
12681;SDS011;6405;59.208;18.216;2022-11-12T15:49:53;5.03;;;1.67;;
12681;SDS011;6405;59.208;18.216;2022-11-12T15:52:21;6.67;;;1.60;;
12681;SDS011;6405;59.208;18.216;2022-11-12T15:54:48;8.20;;;2.10;;
12681;SDS011;6405;59.208;18.216;2022-11-12T15:57:16;5.40;;;2.30;;
12681;SDS011;6405;59.208;18.216;2022-11-12T15:59:56;5.53;;;1.80;;
12681;SDS011;6405;59.208;18.216;2022-11-12T16:02:28;10.20;;;2.00;;
12681;SDS011;6405;59.208;18.216;2022-11-12T16:04:56;5.60;;;1.90;;
12681;SDS011;6405;59.208;18.216;2022-11-12T16:07:23;6.70;;;2.13;;
12681;SDS011;6405;59.208;18.216;2022-11-12T16:09:50;6.97;;;1.90;;
12681;SDS011;6405;59.208;18.216;2022-11-12T16:12:17;6.20;;;1.80;;
12681;SDS011;6405;59.208;18.216;2022-11-12T16:14:44;11.67;;;2.23;;
12681;SDS011;6405;59.208;18.216;2022-11-12T16:17:12;4.53;;;2.33;;
12681;SDS011;6405;59.208;18.216;2022-11-12T16:19:40;10.53;;;2.30;;
12681;SDS011;6405;59.208;18.216;2022-11-12T16:22:07;6.80;;;2.13;;
12681;SDS011;6405;59.208;18.216;2022-11-12T16:24:39;5.60;;;2.07;;
12681;SDS011;6405;59.208;18.216;2022-11-12T16:27:13;7.03;;;2.73;;
12681;SDS011;6405;59.208;18.216;2022-11-12T16:29:42;7.83;;;5.50;;
12681;SDS011;6405;59.208;18.216;2022-11-12T16:32:11;6.33;;;2.43;;
12681;SDS011;6405;59.208;18.216;2022-11-12T16:34:40;21.53;;;12.07;;
12681;SDS011;6405;59.208;18.216;2022-11-12T16:37:09;11.10;;;5.80;;
12681;SDS011;6405;59.208;18.216;2022-11-12T16:39:38;5.40;;;3.23;;
12681;SDS011;6405;59.208;18.216;2022-11-12T16:42:10;7.80;;;3.87;;
12681;SDS011;6405;59.208;18.216;2022-11-12T16:44:37;8.50;;;3.83;;
12681;SDS011;6405;59.208;18.216;2022-11-12T16:47:04;9.60;;;3.93;;
12681;SDS011;6405;59.208;18.216;2022-11-12T16:49:32;10.97;;;3.27;;
12681;SDS011;6405;59.208;18.216;2022-11-12T16:51:59;6.40;;;4.37;;
12681;SDS011;6405;59.208;18.216;2022-11-12T16:54:28;9.30;;;5.40;;
12681;SDS011;6405;59.208;18.216;2022-11-12T16:56:55;10.53;;;6.70;;
12681;SDS011;6405;59.208;18.216;2022-11-12T16:59:23;11.73;;;5.47;;
12681;SDS011;6405;59.208;18.216;2022-11-12T17:01:50;13.27;;;7.50;;
12681;SDS011;6405;59.208;18.216;2022-11-12T17:04:17;10.07;;;6.20;;